Time;durP1;ratioP1;P1;durP2;ratioP2;P2;SDS_P1;SDS_P2;PMS_P1;PMS_P2;Temp;Humidity;BMP_temperature;BMP_pressure;BME280_temperature;BME280_humidity;BME280_pressure;Samples;Min_cycle;Max_cycle;Signal;HPM_P1;HPM_P2
2021/10/17 00:03:20;;;;;;;10.03;6.73;;;;;;;9.52;51.99;98367.09;8253302;28;20207;-78
2021/10/17 00:07:22;;;;;;;8.47;6.33;;;;;;;9.52;52.02;98364.50;8252795;28;20206;-78
2021/10/17 00:11:27;;;;;;;10.60;5.97;;;;;;;9.47;52.44;98374.13;8252941;28;20209;-78
2021/10/17 00:15:31;;;;;;;6.77;5.23;;;;;;;9.61;52.17;98365.91;8252854;28;20226;-78
2021/10/17 00:19:34;;;;;;;6.93;5.30;;;;;;;9.50;51.77;98374.03;8252701;28;20209;-79
2021/10/17 00:23:37;;;;;;;7.10;5.07;;;;;;;9.46;52.13;98367.28;8252802;28;20209;-78
2021/10/17 00:27:42;;;;;;;8.07;5.30;;;;;;;9.41;52.17;98376.94;8255598;28;20400;-79
2021/10/17 00:31:45;;;;;;;7.33;5.20;;;;;;;9.45;52.33;98370.75;8259485;28;20202;-79
2021/10/17 00:35:48;;;;;;;10.13;6.87;;;;;;;9.40;52.28;98372.66;8259124;28;20226;-78
2021/10/17 00:39:51;;;;;;;10.53;6.40;;;;;;;9.33;52.33;98366.00;8259006;28;20206;-79
2021/10/17 00:43:55;;;;;;;8.50;6.93;;;;;;;9.33;52.48;98369.44;8258991;28;20206;-78
2021/10/17 00:48:00;;;;;;;11.27;6.97;;;;;;;9.35;52.15;98371.97;8258862;28;20555;-78
2021/10/17 00:52:04;;;;;;;7.37;6.23;;;;;;;9.28;52.01;98373.91;8258374;28;20249;-78
2021/10/17 00:56:07;;;;;;;8.73;5.43;;;;;;;9.27;52.11;98361.03;8258392;28;20245;-78
2021/10/17 01:00:14;;;;;;;7.30;5.00;;;;;;;9.28;51.87;98354.97;8258517;28;20225;-79
2021/10/17 01:04:17;;;;;;;7.27;5.20;;;;;;;9.14;52.02;98351.09;8258557;28;20209;-78
2021/10/17 01:08:20;;;;;;;8.17;5.47;;;;;;;9.13;51.75;98351.97;8258457;28;20210;-78
2021/10/17 01:12:23;;;;;;;9.30;5.57;;;;;;;9.06;52.21;98349.66;8257998;28;20209;-78
2021/10/17 01:16:27;;;;;;;7.63;5.27;;;;;;;9.16;51.80;98336.38;8257988;28;20226;-78
2021/10/17 01:20:32;;;;;;;6.33;5.10;;;;;;;9.17;51.72;98338.06;8257905;28;20317;-79
2021/10/17 01:24:36;;;;;;;8.00;5.73;;;;;;;9.00;51.74;98335.19;8257695;28;20209;-78
2021/10/17 01:28:39;;;;;;;7.83;5.53;;;;;;;8.99;51.83;98339.50;8257587;28;20206;-78
2021/10/17 01:32:42;;;;;;;5.80;5.03;;;;;;;8.97;51.77;98336.13;8257674;28;20420;-78
2021/10/17 01:36:46;;;;;;;6.77;5.43;;;;;;;8.91;51.67;98333.75;8257627;28;20241;-78
2021/10/17 01:40:50;;;;;;;10.00;5.30;;;;;;;8.95;52.05;98340.50;8257083;28;20209;-78
2021/10/17 01:44:53;;;;;;;8.47;5.27;;;;;;;8.95;51.74;98342.25;8257506;28;20489;-77
2021/10/17 01:48:55;;;;;;;8.07;5.13;;;;;;;8.93;52.06;98337.13;8256859;28;20401;-78
2021/10/17 01:53:00;;;;;;;9.03;5.37;;;;;;;9.00;51.61;98332.59;8256599;28;20245;-78
2021/10/17 01:57:03;;;;;;;7.63;5.17;;;;;;;8.92;51.45;98337.19;8256962;28;20237;-78
2021/10/17 02:01:06;;;;;;;7.03;5.10;;;;;;;8.90;51.99;98344.13;8256704;28;20202;-78
2021/10/17 02:05:09;;;;;;;9.03;5.40;;;;;;;8.86;51.98;98339.97;8256639;28;20244;-79
2021/10/17 02:09:13;;;;;;;8.63;5.03;;;;;;;8.88;51.96;98333.84;8256726;28;20207;-79
2021/10/17 02:13:16;;;;;;;8.20;5.00;;;;;;;8.73;52.39;98337.75;8256130;28;20206;-78
2021/10/17 02:17:19;;;;;;;9.30;4.67;;;;;;;8.74;52.40;98336.03;8256350;28;20238;-78
2021/10/17 02:21:22;;;;;;;13.90;5.53;;;;;;;8.74;52.21;98329.13;8256395;28;20206;-79
2021/10/17 02:25:27;;;;;;;12.77;6.07;;;;;;;8.70;52.69;98332.69;8256608;28;20206;-79
2021/10/17 02:29:30;;;;;;;12.47;6.07;;;;;;;8.65;52.22;98323.41;8255847;28;20206;-78
2021/10/17 02:33:33;;;;;;;15.07;6.40;;;;;;;8.58;52.65;98323.56;8255885;28;20228;-78
2021/10/17 02:37:37;;;;;;;14.83;6.30;;;;;;;8.61;53.02;98320.91;8255740;28;20230;-78
2021/10/17 02:41:41;;;;;;;12.93;6.93;;;;;;;8.57;53.07;98329.63;8255520;28;20217;-78
2021/10/17 02:45:46;;;;;;;15.00;7.63;;;;;;;8.55;52.94;98328.84;8255509;28;20202;-78
2021/10/17 02:49:49;;;;;;;14.33;7.53;;;;;;;8.59;52.86;98322.69;8254759;28;20222;-78
2021/10/17 02:53:52;;;;;;;10.93;5.97;;;;;;;8.60;52.09;98323.53;8255048;28;20253;-78
2021/10/17 02:57:56;;;;;;;8.07;5.80;;;;;;;8.54;52.10;98324.56;8255332;28;20226;-79
2021/10/17 03:01:59;;;;;;;10.77;5.00;;;;;;;8.61;51.96;98313.16;8255011;28;20206;-78
2021/10/17 03:06:02;;;;;;;7.43;4.77;;;;;;;8.61;51.60;98315.72;8254815;28;20508;-78
2021/10/17 03:10:06;;;;;;;7.47;4.73;;;;;;;8.55;51.89;98308.19;8254571;28;20203;-79
2021/10/17 03:14:10;;;;;;;6.70;5.03;;;;;;;8.60;52.58;98315.78;8254354;28;20489;-78
2021/10/17 03:18:13;;;;;;;7.93;4.97;;;;;;;8.63;52.29;98307.94;8254380;28;20532;-79
2021/10/17 03:22:16;;;;;;;8.23;5.57;;;;;;;8.68;52.86;98310.38;8254345;28;20223;-79
2021/10/17 03:26:19;;;;;;;7.80;4.90;;;;;;;8.73;52.82;98316.25;8254247;28;20214;-78
2021/10/17 03:30:23;;;;;;;7.30;5.07;;;;;;;8.74;52.48;98308.47;8254519;28;20383;-78
2021/10/17 03:34:26;;;;;;;10.03;6.73;;;;;;;8.76;53.19;98308.41;8254037;28;20280;-78
2021/10/17 03:38:29;;;;;;;11.63;6.63;;;;;;;8.77;52.77;98310.94;8253596;28;20229;-78
2021/10/17 03:42:32;;;;;;;8.50;5.50;;;;;;;8.83;52.99;98309.06;8253799;28;20202;-78
2021/10/17 03:46:36;;;;;;;8.33;6.00;;;;;;;8.80;53.25;98305.69;8253651;28;20366;-78
2021/10/17 03:50:39;;;;;;;8.13;6.33;;;;;;;8.81;53.08;98309.09;8253332;28;20245;-78
2021/10/17 03:54:43;;;;;;;8.60;6.23;;;;;;;8.70;53.32;98309.44;8253225;28;20249;-78
2021/10/17 03:58:46;;;;;;;9.00;6.73;;;;;;;8.68;53.34;98308.66;8253262;28;20234;-78
2021/10/17 04:02:52;;;;;;;7.03;5.27;;;;;;;8.68;53.26;98306.06;8252328;28;20210;-78
2021/10/17 04:06:55;;;;;;;9.07;5.50;;;;;;;8.73;53.81;98298.16;8253212;28;20206;-78
2021/10/17 04:10:58;;;;;;;9.80;5.93;;;;;;;8.65;54.38;98300.16;8252711;28;20202;-78
2021/10/17 04:15:00;;;;;;;8.77;5.10;;;;;;;8.70;54.94;98299.13;8252928;28;20209;-78
2021/10/17 04:19:05;;;;;;;6.60;5.00;;;;;;;8.34;55.76;98304.47;8252719;28;20553;-77
2021/10/17 04:23:08;;;;;;;7.83;5.13;;;;;;;8.34;55.44;98306.19;8252871;28;20202;-79
2021/10/17 04:27:10;;;;;;;7.57;4.40;;;;;;;8.50;55.86;98306.63;8252663;28;20213;-78
2021/10/17 04:31:16;;;;;;;5.67;4.73;;;;;;;8.65;55.55;98300.16;8252755;28;20203;-78
2021/10/17 04:35:21;;;;;;;8.97;4.93;;;;;;;8.70;55.53;98304.28;8252772;28;20213;-77
2021/10/17 04:39:25;;;;;;;7.83;4.87;;;;;;;8.55;55.50;98300.44;8252407;28;20234;-79
2021/10/17 04:43:28;;;;;;;6.83;5.20;;;;;;;8.57;55.57;98296.06;8252495;28;20214;-78
2021/10/17 04:47:31;;;;;;;8.27;5.10;;;;;;;8.59;55.29;98290.88;8252519;28;20210;-78
2021/10/17 04:51:35;;;;;;;8.20;4.80;;;;;;;8.65;55.46;98288.09;8252039;28;20249;-78
2021/10/17 04:55:38;;;;;;;6.87;4.90;;;;;;;8.71;55.06;98289.63;8252267;28;20202;-78
2021/10/17 04:59:40;;;;;;;6.70;4.87;;;;;;;8.63;54.67;98284.72;8252148;28;20249;-79
2021/10/17 05:03:43;;;;;;;7.10;4.93;;;;;;;8.59;54.97;98285.69;8252228;28;20215;-78
2021/10/17 05:07:48;;;;;;;9.40;5.37;;;;;;;8.26;56.49;98287.53;8252131;28;20214;-79
2021/10/17 05:11:50;;;;;;;7.80;5.17;;;;;;;8.64;55.26;98291.53;8253204;28;20202;-78
2021/10/17 05:15:53;;;;;;;7.43;5.60;;;;;;;8.41;55.69;98290.53;8257866;28;20209;-78
2021/10/17 05:19:56;;;;;;;7.33;5.57;;;;;;;8.67;55.26;98295.78;8257948;28;20533;-78
2021/10/17 05:24:00;;;;;;;7.93;6.43;;;;;;;8.58;55.13;98294.31;8257808;28;20389;-79
2021/10/17 05:28:04;;;;;;;10.97;6.80;;;;;;;8.52;55.10;98302.28;8257537;28;20206;-77
2021/10/17 05:32:10;;;;;;;9.70;6.50;;;;;;;8.57;55.08;98302.97;8257819;28;20209;-79
2021/10/17 05:36:13;;;;;;;9.87;6.30;;;;;;;8.57;55.13;98296.06;8257693;28;20210;-78
2021/10/17 05:40:17;;;;;;;11.30;7.23;;;;;;;8.52;54.96;98297.09;8257490;28;20537;-78
2021/10/17 05:44:20;;;;;;;7.57;6.23;;;;;;;8.64;54.90;98306.19;8256981;28;20371;-78
2021/10/17 05:48:23;;;;;;;9.67;6.70;;;;;;;8.57;55.02;98301.25;8257023;28;20206;-79
2021/10/17 05:52:26;;;;;;;9.20;7.07;;;;;;;8.47;55.22;98299.81;8256545;28;20242;-79
2021/10/17 05:56:30;;;;;;;8.80;7.30;;;;;;;8.51;55.34;98305.72;8257239;28;20202;-79
2021/10/17 06:00:33;;;;;;;11.77;6.00;;;;;;;8.49;55.24;98310.97;8256500;28;20226;-79
2021/10/17 06:04:36;;;;;;;9.87;6.90;;;;;;;8.46;55.21;98308.47;8256616;28;20493;-79
2021/10/17 06:08:39;;;;;;;10.50;7.53;;;;;;;8.63;55.11;98317.44;8256656;28;20212;-79
2021/10/17 06:12:43;;;;;;;13.63;10.40;;;;;;;8.50;55.21;98324.69;8256294;28;20203;-79
2021/10/17 06:16:46;;;;;;;9.57;8.10;;;;;;;8.70;55.07;98332.69;8256288;28;20253;-79
2021/10/17 06:20:49;;;;;;;11.00;7.47;;;;;;;8.22;56.53;98326.34;8255999;28;20230;-79
2021/10/17 06:24:52;;;;;;;10.30;7.37;;;;;;;8.37;55.96;98331.94;8254921;28;20209;-78
2021/10/17 06:28:56;;;;;;;9.47;7.33;;;;;;;8.56;55.70;98337.41;8256206;28;20493;-78
2021/10/17 06:32:59;;;;;;;9.17;7.47;;;;;;;8.43;56.21;98333.50;8255628;28;20202;-78
2021/10/17 06:37:02;;;;;;;9.17;7.67;;;;;;;8.67;56.07;98347.44;8255510;28;20202;-79
2021/10/17 06:41:05;;;;;;;11.40;8.37;;;;;;;8.56;55.82;98347.75;8255642;28;20203;-79
2021/10/17 06:45:10;;;;;;;9.80;7.80;;;;;;;8.60;56.39;98351.91;8255510;28;20203;-78
2021/10/17 06:49:13;;;;;;;9.77;7.87;;;;;;;8.57;56.81;98350.28;8255451;28;20223;-78
2021/10/17 06:53:15;;;;;;;10.30;6.87;;;;;;;8.73;56.57;98354.97;8254850;28;20261;-78
2021/10/17 06:57:18;;;;;;;8.87;7.40;;;;;;;8.88;55.85;98353.66;8254782;28;20206;-79
2021/10/17 07:01:23;;;;;;;9.70;7.83;;;;;;;8.28;57.75;98358.00;8254940;28;20202;-78
2021/10/17 07:05:26;;;;;;;10.37;7.30;;;;;;;8.96;56.73;98362.00;8254853;28;20203;-78
2021/10/17 07:09:29;;;;;;;7.53;6.73;;;;;;;8.93;56.74;98359.50;8254587;28;20397;-78
2021/10/17 07:13:32;;;;;;;12.53;10.00;;;;;;;8.81;57.33;98353.00;8254448;28;20225;-78
2021/10/17 07:17:37;;;;;;;13.67;9.90;;;;;;;9.07;57.35;98353.94;8254205;28;20203;-79
2021/10/17 07:21:55;;;;;;;9.80;7.93;;;;;;;9.05;57.37;98360.88;8254355;28;20214;-79
2021/10/17 07:25:58;;;;;;;10.67;7.90;;;;;;;9.33;56.98;98364.25;8253890;28;20203;-79
2021/10/17 07:30:01;;;;;;;8.63;6.23;;;;;;;9.56;55.83;98379.00;8254120;28;20210;-79
2021/10/17 07:34:05;;;;;;;9.60;6.33;;;;;;;9.76;55.19;98375.72;8253967;28;20209;-79
2021/10/17 07:38:08;;;;;;;6.87;5.70;;;;;;;10.36;53.44;98381.41;8253559;28;20230;-79
2021/10/17 07:42:11;;;;;;;7.40;5.90;;;;;;;10.13;54.38;98366.69;8253884;28;20486;-78
2021/10/17 07:46:17;;;;;;;7.37;5.90;;;;;;;10.57;53.44;98369.41;8253767;28;20224;-79
2021/10/17 07:50:21;;;;;;;8.47;5.77;;;;;;;10.90;52.51;98375.94;8253343;28;20241;-79
2021/10/17 07:54:24;;;;;;;7.27;5.37;;;;;;;11.36;52.05;98376.69;8253203;28;20238;-79
2021/10/17 07:58:30;;;;;;;7.13;5.63;;;;;;;11.80;50.24;98368.78;8253598;28;20230;-79
2021/10/17 08:02:33;;;;;;;10.17;5.47;;;;;;;12.13;49.77;98376.91;8253392;28;20206;-79
2021/10/17 08:06:37;;;;;;;8.23;5.10;;;;;;;12.25;49.19;98375.50;8253254;28;20226;-80
2021/10/17 08:10:41;;;;;;;7.03;5.07;;;;;;;12.28;48.53;98374.50;8253028;28;20493;-80
2021/10/17 08:14:44;;;;;;;10.40;4.87;;;;;;;12.68;47.67;98376.16;8253154;28;20206;-80
2021/10/17 08:18:47;;;;;;;7.30;4.50;;;;;;;12.20;48.64;98382.66;8253045;28;20253;-80
2021/10/17 08:22:51;;;;;;;11.13;5.53;;;;;;;11.91;49.45;98383.94;8252871;28;20201;-80
2021/10/17 08:26:54;;;;;;;5.90;5.13;;;;;;;11.53;50.94;98392.38;8252568;28;20217;-80
2021/10/17 08:31:00;;;;;;;7.80;5.37;;;;;;;11.34;50.93;98384.50;8252900;28;20206;-81
2021/10/17 08:35:04;;;;;;;9.73;5.83;;;;;;;11.15;51.49;98393.94;8252869;28;20382;-80
2021/10/17 08:39:08;;;;;;;6.37;5.67;;;;;;;11.41;51.42;98392.91;8252508;28;20226;-80
2021/10/17 08:43:11;;;;;;;8.07;6.33;;;;;;;11.71;50.50;98400.31;8252667;28;20207;-81
2021/10/17 08:47:14;;;;;;;6.43;5.37;;;;;;;12.42;49.25;98390.34;8253278;28;20229;-80
2021/10/17 08:51:18;;;;;;;7.63;5.57;;;;;;;12.60;49.10;98396.44;8258750;28;20249;-79
2021/10/17 08:55:23;;;;;;;7.77;6.67;;;;;;;12.70;48.62;98387.31;8258925;28;20512;-80
2021/10/17 08:59:26;;;;;;;7.93;5.83;;;;;;;12.46;48.98;98399.66;8258828;28;20229;-80
2021/10/17 09:03:32;;;;;;;6.80;5.50;;;;;;;12.34;49.44;98408.03;8258564;28;20367;-80
2021/10/17 09:07:36;;;;;;;9.67;6.43;;;;;;;12.30;50.12;98396.09;8258311;28;20224;-80
2021/10/17 09:11:42;;;;;;;6.40;5.27;;;;;;;11.97;51.66;98399.22;8258526;28;20206;-79
2021/10/17 09:15:45;;;;;;;7.33;6.30;;;;;;;11.98;51.51;98397.50;8257919;28;20207;-80
2021/10/17 09:19:49;;;;;;;6.93;5.77;;;;;;;11.96;51.87;98397.56;8257825;28;20487;-80
2021/10/17 09:23:53;;;;;;;6.60;5.43;;;;;;;11.72;52.70;98391.63;8258210;28;20225;-80
2021/10/17 09:27:57;;;;;;;10.03;6.40;;;;;;;11.38;53.60;98394.78;8257940;28;20226;-80
2021/10/17 09:32:00;;;;;;;7.87;5.80;;;;;;;11.53;53.69;98391.53;8257759;28;20525;-80
2021/10/17 09:36:16;;;;;;;7.27;6.43;;;;;;;11.72;53.03;98389.84;8257917;28;20445;-80
2021/10/17 09:40:19;;;;;;;8.30;6.37;;;;;;;11.67;52.84;98393.56;8257194;28;20230;-80
2021/10/17 09:44:36;;;;;;;7.97;6.70;;;;;;;11.40;54.25;98385.19;8257258;28;20202;-80
2021/10/17 09:48:40;;;;;;;7.93;6.90;;;;;;;11.37;54.39;98383.56;8257098;28;20218;-80
2021/10/17 09:53:01;;;;;;;9.80;6.30;;;;;;;11.72;53.61;98378.66;8256952;28;20242;-81
2021/10/17 09:57:05;;;;;;;8.17;6.80;;;;;;;11.66;53.91;98378.91;8257372;28;20269;-80
2021/10/17 10:01:10;;;;;;;8.63;6.57;;;;;;;12.05;53.23;98368.63;8255276;28;20293;-80
2021/10/17 10:05:14;;;;;;;8.30;7.30;;;;;;;12.09;53.12;98364.13;8256855;28;20221;-80
2021/10/17 10:09:21;;;;;;;10.47;7.30;;;;;;;12.15;53.17;98358.66;8256966;28;20269;-81
2021/10/17 10:13:24;;;;;;;9.43;7.50;;;;;;;12.25;52.98;98352.13;8256549;28;20202;-80
2021/10/17 10:17:31;;;;;;;12.57;7.63;;;;;;;12.24;52.81;98347.88;8257183;28;20206;-80
2021/10/17 10:21:35;;;;;;;10.50;7.50;;;;;;;12.31;53.07;98344.06;8256513;28;20587;-80
2021/10/17 10:25:38;;;;;;;11.00;8.47;;;;;;;12.29;53.15;98337.25;8256142;28;20202;-80
2021/10/17 10:29:42;;;;;;;8.50;7.30;;;;;;;12.38;52.86;98336.00;8255888;28;20206;-80
2021/10/17 10:33:46;;;;;;;10.07;8.03;;;;;;;12.52;52.91;98339.63;8255831;28;20273;-80
2021/10/17 10:37:49;;;;;;;8.77;7.27;;;;;;;12.56;52.63;98335.13;8255691;28;20265;-80
2021/10/17 10:42:01;;;;;;;10.43;8.67;;;;;;;12.67;52.85;98340.69;8256011;28;20234;-80
2021/10/17 10:46:04;;;;;;;13.17;8.60;;;;;;;12.75;52.52;98347.28;8257509;28;20202;-80
2021/10/17 10:50:08;;;;;;;10.47;8.43;;;;;;;12.38;52.93;98346.41;8255315;28;20267;-80
2021/10/17 10:54:32;;;;;;;9.03;7.77;;;;;;;12.68;53.28;98349.34;8256176;28;20293;-80
2021/10/17 10:58:36;;;;;;;11.97;8.83;;;;;;;12.94;52.67;98348.09;8256537;28;20202;-80
2021/10/17 11:02:41;;;;;;;11.47;9.57;;;;;;;13.16;52.33;98352.28;8254903;28;20202;-79
2021/10/17 11:07:17;;;;;;;11.87;9.00;;;;;;;13.25;52.01;98351.78;8254730;28;20202;-80
2021/10/17 11:11:37;;;;;;;10.57;9.47;;;;;;;13.32;52.78;98336.78;8254160;28;20217;-80
2021/10/17 11:15:43;;;;;;;13.37;9.47;;;;;;;13.63;52.43;98346.47;8255142;28;20202;-80
2021/10/17 11:19:47;;;;;;;11.00;9.63;;;;;;;13.63;51.66;98347.34;8254805;28;20230;-80
2021/10/17 11:23:51;;;;;;;10.80;9.70;;;;;;;13.74;51.83;98353.75;8254565;28;20489;-80
2021/10/17 11:27:57;;;;;;;12.13;10.47;;;;;;;14.04;52.12;98346.13;8254171;28;20202;-80
2021/10/17 11:32:06;;;;;;;11.03;9.33;;;;;;;14.65;50.76;98337.63;8253963;28;20206;-80
2021/10/17 11:36:11;;;;;;;11.13;9.20;;;;;;;14.78;49.81;98332.59;8253480;28;20528;-79
2021/10/17 11:40:15;;;;;;;10.93;9.83;;;;;;;14.79;51.11;98329.06;8253754;28;20226;-80
2021/10/17 11:44:18;;;;;;;10.97;9.37;;;;;;;14.99;50.71;98330.53;8253457;28;20202;-79
2021/10/17 11:48:21;;;;;;;10.00;8.73;;;;;;;14.72;51.42;98332.94;8254168;28;20209;-79
2021/10/17 11:52:24;;;;;;;11.57;10.37;;;;;;;14.75;51.54;98319.72;8253461;28;20549;-81
2021/10/17 11:56:28;;;;;;;12.57;10.63;;;;;;;14.78;52.01;98321.34;8253612;28;20209;-80
2021/10/17 12:00:33;;;;;;;12.67;10.93;;;;;;;14.70;52.55;98326.09;8253237;28;20230;-80
2021/10/17 12:04:42;;;;;;;13.83;12.33;;;;;;;14.47;51.28;98325.59;8253368;28;20489;-80
2021/10/17 12:08:53;;;;;;;12.27;11.07;;;;;;;14.59;52.48;98319.72;8253425;28;20501;-80
2021/10/17 12:13:02;;;;;;;13.83;11.70;;;;;;;14.81;52.50;98315.94;8252984;28;20206;-80
2021/10/17 12:17:04;;;;;;;12.80;11.10;;;;;;;14.80;52.51;98314.25;8252991;28;20214;-79
2021/10/17 12:21:07;;;;;;;14.33;12.27;;;;;;;14.71;52.41;98315.59;8252863;28;20268;-80
2021/10/17 12:25:15;;;;;;;14.80;13.27;;;;;;;14.89;51.47;98315.50;8252114;28;20359;-80
2021/10/17 12:29:20;;;;;;;13.27;11.87;;;;;;;15.32;51.02;98302.63;8252642;28;20202;-79
2021/10/17 12:33:30;;;;;;;13.67;12.27;;;;;;;15.64;49.90;98300.72;8252688;28;20206;-80
2021/10/17 12:37:33;;;;;;;14.50;12.03;;;;;;;15.21;50.88;98300.63;8252555;28;20213;-80
2021/10/17 12:41:36;;;;;;;12.53;11.00;;;;;;;15.13;51.66;98295.00;8252223;28;20229;-80
2021/10/17 12:45:41;;;;;;;15.10;11.07;;;;;;;15.17;52.04;98296.50;8252514;28;20202;-80
2021/10/17 12:49:45;;;;;;;12.27;10.70;;;;;;;15.17;52.17;98294.75;8252286;28;20551;-80
2021/10/17 12:54:04;;;;;;;14.60;11.77;;;;;;;14.98;52.28;98289.75;8252331;28;20238;-80
2021/10/17 12:58:14;;;;;;;14.47;11.97;;;;;;;14.97;52.61;98284.63;8252601;28;20206;-80
2021/10/17 13:02:18;;;;;;;14.53;11.97;;;;;;;15.00;52.01;98282.69;8252234;28;20237;-80
2021/10/17 13:06:21;;;;;;;13.13;11.73;;;;;;;15.11;52.48;98282.06;8252202;28;20221;-80
2021/10/17 13:10:27;;;;;;;13.20;11.90;;;;;;;14.92;51.88;98274.44;8252054;28;20221;-79
2021/10/17 13:14:30;;;;;;;14.10;10.30;;;;;;;14.99;52.17;98288.81;8252076;28;20211;-81
2021/10/17 13:18:34;;;;;;;12.90;11.40;;;;;;;14.98;52.88;98284.53;8252187;28;20210;-80
2021/10/17 13:22:40;;;;;;;11.03;8.93;;;;;;;15.14;54.43;98271.44;8251951;28;20230;-82
2021/10/17 13:26:48;;;;;;;10.30;5.93;;;;;;;16.41;53.95;98273.38;8250191;28;20214;-82
2021/10/17 13:30:51;;;;;;;23.60;8.50;;;;;;;16.67;51.86;98264.78;8218244;28;20215;-82
2021/10/17 13:34:56;;;;;;;12.33;10.50;;;;;;;16.23;50.28;98256.22;8225775;28;20207;-82
2021/10/17 13:38:59;;;;;;;12.93;7.73;;;;;;;16.90;49.94;98252.88;8257419;28;20361;-84
2021/10/17 13:43:04;;;;;;;20.07;7.60;;;;;;;17.47;48.11;98255.13;8256902;28;20556;-83
2021/10/17 13:47:07;;;;;;;16.73;8.07;;;;;;;17.54;47.81;98261.63;8225164;28;20367;-84
2021/10/17 13:51:11;;;;;;;11.67;7.77;;;;;;;17.61;47.12;98262.06;8224604;29;20529;-85
2021/10/17 13:55:14;;;;;;;14.77;7.30;;;;;;;17.82;46.99;98266.75;8224942;28;20210;-83
2021/10/17 13:59:17;;;;;;;13.13;11.63;;;;;;;17.16;47.75;98267.69;8224284;28;20363;-81
2021/10/17 14:03:20;;;;;;;12.70;10.53;;;;;;;16.58;48.90;98251.38;8249619;28;20233;-81
2021/10/17 14:07:24;;;;;;;12.23;10.13;;;;;;;16.35;50.03;98257.22;8247259;28;20206;-82
2021/10/17 14:11:27;;;;;;;14.13;11.77;;;;;;;16.21;50.64;98253.69;8223950;29;20207;-81
2021/10/17 14:15:31;;;;;;;12.17;10.70;;;;;;;16.18;50.96;98256.53;8223813;29;20242;-81
2021/10/17 14:19:33;;;;;;;12.43;10.77;;;;;;;16.04;51.70;98251.31;8223727;29;20226;-81
2021/10/17 14:23:38;;;;;;;13.37;10.50;;;;;;;15.84;52.23;98255.16;8223289;29;20255;-81
2021/10/17 14:27:40;;;;;;;11.87;10.67;;;;;;;15.68;52.67;98257.00;8222821;28;20203;-80
2021/10/17 14:31:43;;;;;;;12.00;10.70;;;;;;;15.62;53.13;98260.81;8224078;28;20217;-81
2021/10/17 14:35:47;;;;;;;14.20;11.27;;;;;;;15.58;53.41;98267.16;8223536;28;20210;-81
2021/10/17 14:39:52;;;;;;;13.63;9.67;;;;;;;15.56;53.37;98264.63;8222182;28;20203;-81
2021/10/17 14:43:55;;;;;;;13.87;10.07;;;;;;;15.43;53.99;98267.13;8222190;28;20352;-81
2021/10/17 14:47:58;;;;;;;12.50;10.13;;;;;;;15.34;54.39;98265.06;8221328;28;20226;-80
2021/10/17 14:52:01;;;;;;;11.60;10.27;;;;;;;15.41;54.28;98255.94;8221835;28;20246;-81
2021/10/17 14:56:05;;;;;;;12.57;10.97;;;;;;;15.43;53.91;98261.06;8221885;28;20499;-80
2021/10/17 15:00:12;;;;;;;11.57;10.43;;;;;;;15.37;53.78;98253.63;8221671;28;20382;-81
2021/10/17 15:04:15;;;;;;;13.00;11.67;;;;;;;15.37;54.15;98251.00;8244264;28;20199;-81
2021/10/17 15:08:18;;;;;;;16.93;12.73;;;;;;;15.32;54.15;98261.69;8253576;28;20213;-81
2021/10/17 15:12:23;;;;;;;15.07;12.97;;;;;;;15.15;54.52;98251.41;8253332;28;20369;-81
2021/10/17 15:16:29;;;;;;;15.83;14.23;;;;;;;15.11;54.69;98260.34;8253246;28;20206;-81
2021/10/17 15:20:34;;;;;;;16.47;14.50;;;;;;;15.08;54.88;98250.94;8253325;28;20230;-81
2021/10/17 15:24:36;;;;;;;16.20;14.30;;;;;;;14.97;55.39;98259.38;8253084;28;20202;-81
2021/10/17 15:28:41;;;;;;;17.13;14.63;;;;;;;14.99;55.50;98262.75;8245774;28;20388;-81
2021/10/17 15:32:43;;;;;;;14.90;13.40;;;;;;;15.01;55.74;98265.25;8221274;28;20207;-81
2021/10/17 15:36:46;;;;;;;14.50;13.00;;;;;;;14.89;56.24;98272.03;8235472;28;20210;-81
2021/10/17 15:40:49;;;;;;;13.57;12.17;;;;;;;14.92;55.85;98271.00;8252695;28;20230;-81
2021/10/17 15:44:53;;;;;;;12.43;11.23;;;;;;;14.93;56.50;98275.31;8252749;28;20202;-80
2021/10/17 15:48:56;;;;;;;15.27;11.67;;;;;;;14.87;56.50;98271.28;8252492;28;20226;-81
2021/10/17 15:52:59;;;;;;;12.20;11.00;;;;;;;14.85;56.69;98268.75;8252462;28;20540;-81
2021/10/17 15:57:02;;;;;;;14.07;10.73;;;;;;;14.78;56.91;98271.78;8252519;28;20202;-81
2021/10/17 16:01:06;;;;;;;13.63;11.00;;;;;;;14.77;56.99;98278.75;8250518;28;20226;-80
2021/10/17 16:05:09;;;;;;;14.17;11.90;;;;;;;14.72;57.51;98277.38;8230899;28;20200;-81
2021/10/17 16:09:12;;;;;;;15.30;12.30;;;;;;;14.69;57.25;98282.72;8220534;29;20397;-81
2021/10/17 16:13:15;;;;;;;13.93;11.73;;;;;;;14.66;57.40;98278.53;8250795;28;20524;-81
2021/10/17 16:17:19;;;;;;;12.03;10.83;;;;;;;14.65;57.59;98289.88;8253132;28;20212;-81
2021/10/17 16:21:23;;;;;;;12.70;11.00;;;;;;;14.55;58.15;98291.31;8227427;28;20227;-80
2021/10/17 16:25:26;;;;;;;12.27;10.00;;;;;;;14.59;57.75;98296.28;8221079;29;20210;-81
2021/10/17 16:29:29;;;;;;;10.40;9.40;;;;;;;14.49;58.47;98297.69;8235000;28;20205;-81
2021/10/17 16:33:35;;;;;;;19.17;13.37;;;;;;;14.46;58.64;98298.69;8252531;28;20210;-81
2021/10/17 16:37:38;;;;;;;14.37;12.70;;;;;;;14.51;58.60;98302.78;8231040;28;20239;-81
2021/10/17 16:41:41;;;;;;;11.67;10.47;;;;;;;14.41;59.09;98298.13;8220654;29;20234;-82
2021/10/17 16:45:45;;;;;;;12.63;9.00;;;;;;;14.35;58.97;98295.81;8221093;29;20532;-81
2021/10/17 16:49:50;;;;;;;10.60;9.23;;;;;;;14.25;59.23;98294.66;8220255;28;20223;-81
2021/10/17 16:54:01;;;;;;;16.13;11.73;;;;;;;14.33;58.93;98308.09;8219960;28;20260;-82
2021/10/17 16:58:04;;;;;;;10.47;9.37;;;;;;;14.29;59.21;98303.97;8219898;29;20214;-81
2021/10/17 17:02:08;;;;;;;11.03;8.73;;;;;;;14.27;59.14;98311.88;8219314;28;20223;-81
2021/10/17 17:06:12;;;;;;;9.97;8.97;;;;;;;14.26;59.33;98305.00;8219668;28;20387;-82
2021/10/17 17:10:16;;;;;;;12.63;10.60;;;;;;;14.22;59.71;98313.03;8223206;28;20490;-82
2021/10/17 17:14:19;;;;;;;13.27;9.10;;;;;;;14.23;59.17;98318.16;8225492;28;20203;-82
2021/10/17 17:18:23;;;;;;;10.50;7.97;;;;;;;14.22;59.20;98321.72;8225445;28;20210;-82
2021/10/17 17:22:33;;;;;;;12.10;10.50;;;;;;;14.27;59.21;98319.69;8225546;28;20246;-81
2021/10/17 17:26:42;;;;;;;11.23;9.00;;;;;;;14.19;59.43;98323.63;8225765;28;20393;-83
2021/10/17 17:31:05;;;;;;;13.27;10.23;;;;;;;14.23;59.51;98336.41;8225397;28;20219;-82
2021/10/17 17:35:13;;;;;;;10.10;8.47;;;;;;;14.24;59.23;98330.28;8225421;28;20203;-82
2021/10/17 17:39:19;;;;;;;7.97;6.80;;;;;;;14.19;59.81;98339.25;8225651;28;20214;-83
2021/10/17 17:43:22;;;;;;;16.60;11.30;;;;;;;14.12;59.82;98335.28;8225934;28;20408;-82
2021/10/17 17:47:32;;;;;;;11.67;9.33;;;;;;;14.11;59.76;98342.28;8225039;28;20202;-82
2021/10/17 17:51:35;;;;;;;10.83;8.60;;;;;;;14.08;59.90;98352.84;8225066;28;20424;-82
2021/10/17 17:55:39;;;;;;;12.33;9.13;;;;;;;14.07;59.93;98353.78;8224737;28;20207;-81
2021/10/17 17:59:42;;;;;;;10.73;9.03;;;;;;;14.06;60.01;98352.09;8224461;28;20205;-82
2021/10/17 18:03:45;;;;;;;11.63;10.13;;;;;;;14.08;60.18;98355.44;8223993;28;20270;-81
2021/10/17 18:07:48;;;;;;;13.93;12.10;;;;;;;14.03;60.35;98362.66;8224860;28;20509;-81
2021/10/17 18:11:54;;;;;;;11.30;9.93;;;;;;;14.05;60.17;98368.63;8224242;28;20217;-81
2021/10/17 18:15:57;;;;;;;9.80;8.23;;;;;;;13.92;60.43;98360.63;8225717;28;20520;-81
2021/10/17 18:20:00;;;;;;;9.03;8.07;;;;;;;14.03;60.07;98367.84;8223677;28;20203;-81
2021/10/17 18:24:04;;;;;;;11.13;9.50;;;;;;;14.00;60.00;98360.22;8224693;28;20297;-81
2021/10/17 18:28:09;;;;;;;12.67;10.13;;;;;;;13.97;60.30;98368.19;8224080;28;20383;-81
2021/10/17 18:32:12;;;;;;;13.00;11.20;;;;;;;14.02;60.06;98363.59;8223655;28;20207;-81
2021/10/17 18:36:16;;;;;;;9.27;8.30;;;;;;;13.94;60.03;98356.16;8223858;28;20203;-81
2021/10/17 18:40:19;;;;;;;11.30;8.53;;;;;;;13.98;59.94;98360.28;8246568;28;20237;-81
2021/10/17 18:44:23;;;;;;;8.83;7.93;;;;;;;13.89;60.43;98364.19;8251491;28;20230;-83
2021/10/17 18:48:26;;;;;;;17.43;11.93;;;;;;;13.93;60.63;98356.25;8222922;28;20506;-83
2021/10/17 18:52:29;;;;;;;11.60;9.33;;;;;;;13.92;60.32;98360.63;8225639;28;20246;-82
2021/10/17 18:56:32;;;;;;;11.70;10.23;;;;;;;13.89;60.20;98363.38;8222734;28;20222;-81
2021/10/17 19:00:36;;;;;;;11.80;9.93;;;;;;;13.92;60.73;98365.81;8222879;28;20203;-81
2021/10/17 19:04:41;;;;;;;12.57;9.87;;;;;;;13.80;61.24;98371.66;8222465;28;20231;-81